sensor_id;sensor_type;location;lat;lon;timestamp;P1;durP1;ratioP1;P2;durP2;ratioP2
23115;SDS011;11727;52.134;5.052;2023-06-26T00:01:19;6.85;;;3.83;;
23115;SDS011;11727;52.134;5.052;2023-06-26T00:03:46;5.97;;;3.42;;
23115;SDS011;11727;52.134;5.052;2023-06-26T00:06:12;4.40;;;2.97;;
23115;SDS011;11727;52.134;5.052;2023-06-26T00:08:38;6.38;;;3.80;;
23115;SDS011;11727;52.134;5.052;2023-06-26T00:11:03;5.00;;;3.58;;
23115;SDS011;11727;52.134;5.052;2023-06-26T00:13:29;6.63;;;3.53;;
23115;SDS011;11727;52.134;5.052;2023-06-26T00:15:55;6.05;;;2.97;;
23115;SDS011;11727;52.134;5.052;2023-06-26T00:18:20;6.28;;;3.38;;
23115;SDS011;11727;52.134;5.052;2023-06-26T00:20:46;6.10;;;3.70;;
23115;SDS011;11727;52.134;5.052;2023-06-26T00:23:12;8.65;;;3.22;;
23115;SDS011;11727;52.134;5.052;2023-06-26T00:25:38;6.38;;;2.78;;
23115;SDS011;11727;52.134;5.052;2023-06-26T00:28:03;4.72;;;3.05;;
23115;SDS011;11727;52.134;5.052;2023-06-26T00:30:29;4.85;;;2.75;;
23115;SDS011;11727;52.134;5.052;2023-06-26T00:32:55;6.95;;;3.55;;
23115;SDS011;11727;52.134;5.052;2023-06-26T00:35:20;4.88;;;3.70;;
23115;SDS011;11727;52.134;5.052;2023-06-26T00:37:46;5.13;;;3.30;;
23115;SDS011;11727;52.134;5.052;2023-06-26T00:40:12;7.32;;;4.40;;
23115;SDS011;11727;52.134;5.052;2023-06-26T00:42:38;9.32;;;4.63;;
23115;SDS011;11727;52.134;5.052;2023-06-26T00:45:03;6.10;;;3.50;;
23115;SDS011;11727;52.134;5.052;2023-06-26T00:47:29;7.00;;;3.67;;
23115;SDS011;11727;52.134;5.052;2023-06-26T00:49:55;5.72;;;2.80;;
23115;SDS011;11727;52.134;5.052;2023-06-26T00:52:21;5.28;;;3.85;;
23115;SDS011;11727;52.134;5.052;2023-06-26T00:54:48;4.90;;;3.03;;
23115;SDS011;11727;52.134;5.052;2023-06-26T00:57:16;5.30;;;3.08;;
23115;SDS011;11727;52.134;5.052;2023-06-26T00:59:42;6.28;;;3.40;;
23115;SDS011;11727;52.134;5.052;2023-06-26T01:02:09;6.43;;;3.03;;
23115;SDS011;11727;52.134;5.052;2023-06-26T01:04:35;5.47;;;3.00;;
23115;SDS011;11727;52.134;5.052;2023-06-26T01:18:32;9.77;;;3.30;;
23115;SDS011;11727;52.134;5.052;2023-06-26T01:21:22;5.15;;;3.05;;
23115;SDS011;11727;52.134;5.052;2023-06-26T01:24:15;5.20;;;2.70;;
23115;SDS011;11727;52.134;5.052;2023-06-26T01:30:42;6.68;;;3.00;;
23115;SDS011;11727;52.134;5.052;2023-06-26T01:36:04;8.82;;;3.10;;
23115;SDS011;11727;52.134;5.052;2023-06-26T01:38:53;7.68;;;3.03;;
23115;SDS011;11727;52.134;5.052;2023-06-26T01:41:19;6.35;;;3.00;;
23115;SDS011;11727;52.134;5.052;2023-06-26T01:50:26;8.50;;;2.97;;
23115;SDS011;11727;52.134;5.052;2023-06-26T01:53:24;4.13;;;2.30;;
23115;SDS011;11727;52.134;5.052;2023-06-26T02:11:48;7.25;;;2.60;;
23115;SDS011;11727;52.134;5.052;2023-06-26T02:15:11;9.38;;;2.30;;
23115;SDS011;11727;52.134;5.052;2023-06-26T02:17:55;5.80;;;2.83;;
23115;SDS011;11727;52.134;5.052;2023-06-26T02:44:19;9.18;;;2.63;;
23115;SDS011;11727;52.134;5.052;2023-06-26T02:46:54;3.45;;;2.10;;
23115;SDS011;11727;52.134;5.052;2023-06-26T02:49:48;12.45;;;3.17;;
23115;SDS011;11727;52.134;5.052;2023-06-26T02:52:26;9.95;;;2.83;;
23115;SDS011;11727;52.134;5.052;2023-06-26T02:57:37;8.13;;;2.53;;
23115;SDS011;11727;52.134;5.052;2023-06-26T03:00:32;10.75;;;3.10;;
23115;SDS011;11727;52.134;5.052;2023-06-26T03:03:40;12.30;;;3.00;;
23115;SDS011;11727;52.134;5.052;2023-06-26T03:09:32;12.60;;;3.53;;
23115;SDS011;11727;52.134;5.052;2023-06-26T05:18:29;5.50;;;1.55;;
23115;SDS011;11727;52.134;5.052;2023-06-26T05:21:01;4.68;;;1.48;;
23115;SDS011;11727;52.134;5.052;2023-06-26T05:23:30;3.97;;;1.63;;
23115;SDS011;11727;52.134;5.052;2023-06-26T05:25:56;5.40;;;1.55;;
23115;SDS011;11727;52.134;5.052;2023-06-26T05:28:25;4.63;;;1.38;;
23115;SDS011;11727;52.134;5.052;2023-06-26T05:30:52;5.45;;;2.03;;
23115;SDS011;11727;52.134;5.052;2023-06-26T05:33:23;5.20;;;1.83;;
23115;SDS011;11727;52.134;5.052;2023-06-26T05:35:50;7.05;;;1.80;;
23115;SDS011;11727;52.134;5.052;2023-06-26T05:38:17;5.18;;;1.73;;
23115;SDS011;11727;52.134;5.052;2023-06-26T05:40:44;2.75;;;1.30;;
23115;SDS011;11727;52.134;5.052;2023-06-26T05:43:13;3.33;;;1.30;;
23115;SDS011;11727;52.134;5.052;2023-06-26T05:45:39;3.05;;;1.40;;
23115;SDS011;11727;52.134;5.052;2023-06-26T05:48:05;6.43;;;1.35;;
23115;SDS011;11727;52.134;5.052;2023-06-26T05:50:31;6.07;;;1.85;;
23115;SDS011;11727;52.134;5.052;2023-06-26T05:52:57;3.85;;;1.27;;
23115;SDS011;11727;52.134;5.052;2023-06-26T05:55:23;1.98;;;1.00;;
23115;SDS011;11727;52.134;5.052;2023-06-26T05:57:49;5.30;;;1.77;;
23115;SDS011;11727;52.134;5.052;2023-06-26T06:00:16;4.07;;;1.80;;
23115;SDS011;11727;52.134;5.052;2023-06-26T06:02:42;4.72;;;1.38;;
23115;SDS011;11727;52.134;5.052;2023-06-26T06:05:08;5.13;;;1.50;;
23115;SDS011;11727;52.134;5.052;2023-06-26T06:07:34;2.55;;;1.45;;
23115;SDS011;11727;52.134;5.052;2023-06-26T06:10:01;3.13;;;1.23;;
23115;SDS011;11727;52.134;5.052;2023-06-26T06:12:27;6.05;;;1.08;;
23115;SDS011;11727;52.134;5.052;2023-06-26T06:14:53;3.10;;;1.13;;
23115;SDS011;11727;52.134;5.052;2023-06-26T06:17:19;4.88;;;1.08;;
23115;SDS011;11727;52.134;5.052;2023-06-26T06:19:45;6.43;;;1.95;;
23115;SDS011;11727;52.134;5.052;2023-06-26T06:22:11;5.63;;;1.50;;
23115;SDS011;11727;52.134;5.052;2023-06-26T06:24:37;2.60;;;1.42;;
23115;SDS011;11727;52.134;5.052;2023-06-26T06:27:02;3.38;;;1.33;;
23115;SDS011;11727;52.134;5.052;2023-06-26T06:29:28;2.40;;;1.23;;
23115;SDS011;11727;52.134;5.052;2023-06-26T06:31:53;8.82;;;1.45;;
23115;SDS011;11727;52.134;5.052;2023-06-26T06:34:19;6.70;;;2.20;;
23115;SDS011;11727;52.134;5.052;2023-06-26T06:36:45;2.88;;;1.58;;
23115;SDS011;11727;52.134;5.052;2023-06-26T06:39:11;9.05;;;1.92;;
23115;SDS011;11727;52.134;5.052;2023-06-26T06:41:36;8.75;;;1.55;;
23115;SDS011;11727;52.134;5.052;2023-06-26T06:44:03;4.32;;;1.35;;
23115;SDS011;11727;52.134;5.052;2023-06-26T06:46:29;5.63;;;1.42;;
23115;SDS011;11727;52.134;5.052;2023-06-26T06:48:55;3.78;;;1.15;;
23115;SDS011;11727;52.134;5.052;2023-06-26T06:51:21;5.88;;;1.40;;
23115;SDS011;11727;52.134;5.052;2023-06-26T06:53:47;6.78;;;1.50;;
23115;SDS011;11727;52.134;5.052;2023-06-26T06:56:12;5.90;;;1.60;;
23115;SDS011;11727;52.134;5.052;2023-06-26T06:58:38;5.53;;;1.40;;
23115;SDS011;11727;52.134;5.052;2023-06-26T07:01:07;7.50;;;1.25;;
23115;SDS011;11727;52.134;5.052;2023-06-26T07:03:34;4.30;;;1.07;;
23115;SDS011;11727;52.134;5.052;2023-06-26T07:06:00;4.75;;;1.45;;
23115;SDS011;11727;52.134;5.052;2023-06-26T07:08:26;4.07;;;1.00;;
23115;SDS011;11727;52.134;5.052;2023-06-26T07:10:52;3.10;;;1.00;;
23115;SDS011;11727;52.134;5.052;2023-06-26T07:13:17;6.35;;;1.05;;
23115;SDS011;11727;52.134;5.052;2023-06-26T07:15:43;5.78;;;1.08;;
23115;SDS011;11727;52.134;5.052;2023-06-26T07:18:10;2.67;;;1.08;;
23115;SDS011;11727;52.134;5.052;2023-06-26T07:20:36;6.13;;;1.33;;
23115;SDS011;11727;52.134;5.052;2023-06-26T07:23:01;5.93;;;1.10;;
23115;SDS011;11727;52.134;5.052;2023-06-26T07:25:27;2.28;;;1.02;;
23115;SDS011;11727;52.134;5.052;2023-06-26T07:27:53;4.28;;;1.10;;
23115;SDS011;11727;52.134;5.052;2023-06-26T07:30:18;3.15;;;1.10;;
23115;SDS011;11727;52.134;5.052;2023-06-26T07:32:44;5.03;;;1.30;;
23115;SDS011;11727;52.134;5.052;2023-06-26T07:35:10;6.95;;;1.33;;
23115;SDS011;11727;52.134;5.052;2023-06-26T07:37:35;6.43;;;1.02;;
23115;SDS011;11727;52.134;5.052;2023-06-26T07:40:01;3.78;;;1.00;;
23115;SDS011;11727;52.134;5.052;2023-06-26T07:42:27;4.40;;;1.33;;
23115;SDS011;11727;52.134;5.052;2023-06-26T07:44:53;2.58;;;1.05;;
23115;SDS011;11727;52.134;5.052;2023-06-26T07:47:18;3.72;;;0.88;;
23115;SDS011;11727;52.134;5.052;2023-06-26T07:49:44;2.17;;;0.82;;
23115;SDS011;11727;52.134;5.052;2023-06-26T07:52:10;5.40;;;1.00;;
23115;SDS011;11727;52.134;5.052;2023-06-26T07:54:36;2.47;;;1.15;;
23115;SDS011;11727;52.134;5.052;2023-06-26T07:57:03;2.85;;;1.23;;
23115;SDS011;11727;52.134;5.052;2023-06-26T07:59:32;2.90;;;1.00;;
23115;SDS011;11727;52.134;5.052;2023-06-26T08:01:58;5.13;;;0.85;;
23115;SDS011;11727;52.134;5.052;2023-06-26T08:04:24;2.85;;;0.70;;
23115;SDS011;11727;52.134;5.052;2023-06-26T08:06:54;6.70;;;1.00;;
23115;SDS011;11727;52.134;5.052;2023-06-26T08:09:26;5.30;;;1.40;;
23115;SDS011;11727;52.134;5.052;2023-06-26T08:11:53;4.13;;;1.00;;
23115;SDS011;11727;52.134;5.052;2023-06-26T08:14:19;3.77;;;0.63;;
23115;SDS011;11727;52.134;5.052;2023-06-26T08:16:46;4.63;;;1.02;;
23115;SDS011;11727;52.134;5.052;2023-06-26T08:19:12;5.45;;;1.13;;
23115;SDS011;11727;52.134;5.052;2023-06-26T08:21:39;3.97;;;0.90;;
23115;SDS011;11727;52.134;5.052;2023-06-26T08:24:05;3.20;;;0.77;;
23115;SDS011;11727;52.134;5.052;2023-06-26T08:26:31;3.92;;;1.05;;
23115;SDS011;11727;52.134;5.052;2023-06-26T08:28:56;3.83;;;0.73;;
23115;SDS011;11727;52.134;5.052;2023-06-26T08:31:22;7.68;;;1.00;;
23115;SDS011;11727;52.134;5.052;2023-06-26T08:33:48;4.32;;;0.68;;
23115;SDS011;11727;52.134;5.052;2023-06-26T08:36:13;2.05;;;0.90;;
23115;SDS011;11727;52.134;5.052;2023-06-26T08:38:39;5.43;;;1.10;;
23115;SDS011;11727;52.134;5.052;2023-06-26T08:41:05;3.67;;;1.13;;
23115;SDS011;11727;52.134;5.052;2023-06-26T08:43:34;5.05;;;1.33;;
23115;SDS011;11727;52.134;5.052;2023-06-26T08:46:00;2.63;;;1.00;;
23115;SDS011;11727;52.134;5.052;2023-06-26T08:48:26;1.98;;;0.90;;
23115;SDS011;11727;52.134;5.052;2023-06-26T08:50:57;2.85;;;1.00;;
23115;SDS011;11727;52.134;5.052;2023-06-26T08:55:55;4.57;;;1.20;;
23115;SDS011;11727;52.134;5.052;2023-06-26T08:58:23;7.68;;;1.23;;
23115;SDS011;11727;52.134;5.052;2023-06-26T09:00:49;2.95;;;1.05;;
23115;SDS011;11727;52.134;5.052;2023-06-26T09:03:15;2.88;;;0.77;;
23115;SDS011;11727;52.134;5.052;2023-06-26T09:05:40;1.40;;;0.77;;
23115;SDS011;11727;52.134;5.052;2023-06-26T09:08:07;4.03;;;0.88;;
23115;SDS011;11727;52.134;5.052;2023-06-26T09:10:33;4.85;;;1.08;;
23115;SDS011;11727;52.134;5.052;2023-06-26T09:12:59;1.50;;;0.80;;
23115;SDS011;11727;52.134;5.052;2023-06-26T09:15:27;3.95;;;0.93;;
23115;SDS011;11727;52.134;5.052;2023-06-26T09:18:01;3.38;;;0.80;;
23115;SDS011;11727;52.134;5.052;2023-06-26T09:20:30;5.18;;;1.00;;
23115;SDS011;11727;52.134;5.052;2023-06-26T09:22:58;5.20;;;0.98;;
23115;SDS011;11727;52.134;5.052;2023-06-26T09:25:24;3.33;;;1.20;;
23115;SDS011;11727;52.134;5.052;2023-06-26T09:27:51;2.60;;;0.90;;
23115;SDS011;11727;52.134;5.052;2023-06-26T09:30:17;6.85;;;1.48;;
23115;SDS011;11727;52.134;5.052;2023-06-26T09:32:43;3.33;;;0.80;;
23115;SDS011;11727;52.134;5.052;2023-06-26T09:35:09;3.45;;;1.02;;
23115;SDS011;11727;52.134;5.052;2023-06-26T09:37:35;4.45;;;0.70;;
23115;SDS011;11727;52.134;5.052;2023-06-26T09:40:01;4.50;;;1.15;;
23115;SDS011;11727;52.134;5.052;2023-06-26T09:42:28;2.38;;;0.93;;
23115;SDS011;11727;52.134;5.052;2023-06-26T09:44:57;3.08;;;0.68;;
23115;SDS011;11727;52.134;5.052;2023-06-26T09:47:23;1.65;;;0.63;;
23115;SDS011;11727;52.134;5.052;2023-06-26T09:49:49;2.92;;;0.88;;
23115;SDS011;11727;52.134;5.052;2023-06-26T09:52:16;7.55;;;0.93;;
23115;SDS011;11727;52.134;5.052;2023-06-26T09:54:43;2.50;;;0.80;;
23115;SDS011;11727;52.134;5.052;2023-06-26T09:59:47;2.72;;;1.05;;
23115;SDS011;11727;52.134;5.052;2023-06-26T10:02:13;6.15;;;0.77;;
23115;SDS011;11727;52.134;5.052;2023-06-26T10:04:39;4.50;;;0.80;;
23115;SDS011;11727;52.134;5.052;2023-06-26T10:07:05;4.60;;;0.85;;
23115;SDS011;11727;52.134;5.052;2023-06-26T10:09:33;4.03;;;0.95;;
23115;SDS011;11727;52.134;5.052;2023-06-26T10:12:38;5.90;;;1.20;;
23115;SDS011;11727;52.134;5.052;2023-06-26T10:14:57;2.00;;;0.70;;
23115;SDS011;11727;52.134;5.052;2023-06-26T10:17:24;4.07;;;1.00;;
23115;SDS011;11727;52.134;5.052;2023-06-26T10:19:54;3.10;;;0.80;;
23115;SDS011;11727;52.134;5.052;2023-06-26T10:22:24;4.93;;;0.90;;
23115;SDS011;11727;52.134;5.052;2023-06-26T10:24:54;2.00;;;0.73;;
23115;SDS011;11727;52.134;5.052;2023-06-26T10:27:24;4.93;;;1.25;;
23115;SDS011;11727;52.134;5.052;2023-06-26T10:29:58;5.03;;;0.70;;
23115;SDS011;11727;52.134;5.052;2023-06-26T10:32:29;3.60;;;0.68;;
23115;SDS011;11727;52.134;5.052;2023-06-26T10:34:56;2.45;;;0.80;;
23115;SDS011;11727;52.134;5.052;2023-06-26T10:37:44;1.45;;;0.65;;
23115;SDS011;11727;52.134;5.052;2023-06-26T10:40:09;5.43;;;1.17;;
23115;SDS011;11727;52.134;5.052;2023-06-26T10:42:36;2.17;;;0.65;;
23115;SDS011;11727;52.134;5.052;2023-06-26T10:45:36;1.05;;;0.60;;
23115;SDS011;11727;52.134;5.052;2023-06-26T10:47:54;1.85;;;0.60;;
23115;SDS011;11727;52.134;5.052;2023-06-26T10:50:24;2.80;;;0.75;;
23115;SDS011;11727;52.134;5.052;2023-06-26T10:53:12;3.10;;;1.35;;
23115;SDS011;11727;52.134;5.052;2023-06-26T10:56:00;3.70;;;1.00;;
23115;SDS011;11727;52.134;5.052;2023-06-26T11:03:38;6.57;;;0.60;;
23115;SDS011;11727;52.134;5.052;2023-06-26T11:06:13;2.03;;;0.43;;
23115;SDS011;11727;52.134;5.052;2023-06-26T11:08:44;2.47;;;0.60;;
23115;SDS011;11727;52.134;5.052;2023-06-26T11:11:22;2.80;;;0.93;;
23115;SDS011;11727;52.134;5.052;2023-06-26T11:14:34;2.92;;;0.60;;
23115;SDS011;11727;52.134;5.052;2023-06-26T11:17:02;1.77;;;0.70;;
23115;SDS011;11727;52.134;5.052;2023-06-26T11:19:28;4.20;;;0.70;;
23115;SDS011;11727;52.134;5.052;2023-06-26T11:21:57;5.03;;;0.70;;
23115;SDS011;11727;52.134;5.052;2023-06-26T11:24:25;2.30;;;0.70;;
23115;SDS011;11727;52.134;5.052;2023-06-26T11:26:51;4.10;;;0.65;;
23115;SDS011;11727;52.134;5.052;2023-06-26T11:29:17;1.73;;;0.55;;
23115;SDS011;11727;52.134;5.052;2023-06-26T11:31:43;2.20;;;0.80;;
23115;SDS011;11727;52.134;5.052;2023-06-26T11:34:09;6.03;;;1.08;;
23115;SDS011;11727;52.134;5.052;2023-06-26T11:36:37;1.52;;;0.60;;
23115;SDS011;11727;52.134;5.052;2023-06-26T11:39:04;2.40;;;0.50;;
23115;SDS011;11727;52.134;5.052;2023-06-26T11:41:31;2.28;;;0.70;;
23115;SDS011;11727;52.134;5.052;2023-06-26T11:44:00;0.68;;;0.35;;
23115;SDS011;11727;52.134;5.052;2023-06-26T11:46:35;0.90;;;0.45;;
23115;SDS011;11727;52.134;5.052;2023-06-26T11:49:03;9.88;;;3.40;;
23115;SDS011;11727;52.134;5.052;2023-06-26T11:51:29;2.15;;;1.08;;
23115;SDS011;11727;52.134;5.052;2023-06-26T11:53:55;2.60;;;0.50;;
23115;SDS011;11727;52.134;5.052;2023-06-26T11:56:20;1.02;;;0.40;;
23115;SDS011;11727;52.134;5.052;2023-06-26T12:01:32;0.63;;;0.45;;
23115;SDS011;11727;52.134;5.052;2023-06-26T12:04:01;1.73;;;0.50;;
23115;SDS011;11727;52.134;5.052;2023-06-26T12:06:30;3.63;;;0.70;;
23115;SDS011;11727;52.134;5.052;2023-06-26T12:09:00;1.83;;;0.50;;
23115;SDS011;11727;52.134;5.052;2023-06-26T12:11:27;3.88;;;0.80;;
23115;SDS011;11727;52.134;5.052;2023-06-26T12:13:54;1.13;;;0.38;;
23115;SDS011;11727;52.134;5.052;2023-06-26T12:16:21;5.75;;;1.85;;
23115;SDS011;11727;52.134;5.052;2023-06-26T12:18:46;2.22;;;0.40;;
23115;SDS011;11727;52.134;5.052;2023-06-26T12:24:07;1.75;;;0.45;;
23115;SDS011;11727;52.134;5.052;2023-06-26T12:26:34;1.38;;;0.57;;
23115;SDS011;11727;52.134;5.052;2023-06-26T12:29:07;1.23;;;0.60;;
23115;SDS011;11727;52.134;5.052;2023-06-26T12:31:34;1.23;;;0.55;;
23115;SDS011;11727;52.134;5.052;2023-06-26T12:34:08;2.38;;;0.50;;
23115;SDS011;11727;52.134;5.052;2023-06-26T12:36:43;2.45;;;0.60;;
23115;SDS011;11727;52.134;5.052;2023-06-26T12:39:10;3.45;;;1.05;;
23115;SDS011;11727;52.134;5.052;2023-06-26T12:44:19;6.93;;;0.85;;
23115;SDS011;11727;52.134;5.052;2023-06-26T12:46:49;2.15;;;0.60;;
23115;SDS011;11727;52.134;5.052;2023-06-26T12:49:18;1.40;;;0.50;;
23115;SDS011;11727;52.134;5.052;2023-06-26T12:51:44;1.88;;;0.60;;
23115;SDS011;11727;52.134;5.052;2023-06-26T12:54:10;4.65;;;0.95;;
23115;SDS011;11727;52.134;5.052;2023-06-26T12:56:35;3.30;;;0.70;;
23115;SDS011;11727;52.134;5.052;2023-06-26T12:59:01;2.80;;;0.88;;
23115;SDS011;11727;52.134;5.052;2023-06-26T13:01:27;1.65;;;0.50;;
23115;SDS011;11727;52.134;5.052;2023-06-26T13:03:53;3.42;;;0.82;;
23115;SDS011;11727;52.134;5.052;2023-06-26T13:06:19;2.72;;;0.47;;
23115;SDS011;11727;52.134;5.052;2023-06-26T13:08:45;2.03;;;0.52;;
23115;SDS011;11727;52.134;5.052;2023-06-26T13:11:11;0.95;;;0.60;;
23115;SDS011;11727;52.134;5.052;2023-06-26T13:13:36;1.98;;;0.50;;
23115;SDS011;11727;52.134;5.052;2023-06-26T13:16:02;4.05;;;0.93;;
23115;SDS011;11727;52.134;5.052;2023-06-26T13:18:28;3.42;;;0.47;;
23115;SDS011;11727;52.134;5.052;2023-06-26T13:20:54;2.95;;;0.55;;
23115;SDS011;11727;52.134;5.052;2023-06-26T13:23:19;4.35;;;1.15;;
23115;SDS011;11727;52.134;5.052;2023-06-26T13:25:45;3.90;;;0.98;;
23115;SDS011;11727;52.134;5.052;2023-06-26T13:28:11;4.68;;;0.68;;
23115;SDS011;11727;52.134;5.052;2023-06-26T13:30:36;2.85;;;0.63;;
23115;SDS011;11727;52.134;5.052;2023-06-26T13:33:02;1.63;;;0.60;;
23115;SDS011;11727;52.134;5.052;2023-06-26T13:35:28;1.55;;;0.50;;
23115;SDS011;11727;52.134;5.052;2023-06-26T13:37:53;0.95;;;0.50;;
23115;SDS011;11727;52.134;5.052;2023-06-26T13:40:19;2.05;;;0.50;;
23115;SDS011;11727;52.134;5.052;2023-06-26T13:42:45;2.17;;;0.70;;
23115;SDS011;11727;52.134;5.052;2023-06-26T13:45:10;0.80;;;0.50;;
23115;SDS011;11727;52.134;5.052;2023-06-26T13:47:36;1.52;;;0.30;;
23115;SDS011;11727;52.134;5.052;2023-06-26T13:50:08;2.75;;;0.80;;
23115;SDS011;11727;52.134;5.052;2023-06-26T13:52:35;0.55;;;0.30;;
23115;SDS011;11727;52.134;5.052;2023-06-26T13:55:01;0.82;;;0.50;;
23115;SDS011;11727;52.134;5.052;2023-06-26T13:57:30;2.28;;;0.60;;
23115;SDS011;11727;52.134;5.052;2023-06-26T13:59:56;5.38;;;0.77;;
23115;SDS011;11727;52.134;5.052;2023-06-26T14:02:22;6.72;;;0.68;;
23115;SDS011;11727;52.134;5.052;2023-06-26T14:04:47;2.78;;;0.60;;
23115;SDS011;11727;52.134;5.052;2023-06-26T14:07:13;0.77;;;0.60;;
23115;SDS011;11727;52.134;5.052;2023-06-26T14:09:39;1.92;;;0.40;;
23115;SDS011;11727;52.134;5.052;2023-06-26T14:12:05;1.88;;;0.98;;
23115;SDS011;11727;52.134;5.052;2023-06-26T14:14:32;0.30;;;0.30;;
23115;SDS011;11727;52.134;5.052;2023-06-26T14:16:58;1.33;;;0.50;;
23115;SDS011;11727;52.134;5.052;2023-06-26T14:19:24;1.00;;;0.40;;
23115;SDS011;11727;52.134;5.052;2023-06-26T14:21:51;0.55;;;0.35;;
23115;SDS011;11727;52.134;5.052;2023-06-26T14:24:16;1.80;;;0.40;;
23115;SDS011;11727;52.134;5.052;2023-06-26T14:26:42;0.82;;;0.40;;
23115;SDS011;11727;52.134;5.052;2023-06-26T14:29:08;0.60;;;0.40;;
23115;SDS011;11727;52.134;5.052;2023-06-26T14:31:34;1.00;;;0.43;;
23115;SDS011;11727;52.134;5.052;2023-06-26T14:33:59;5.97;;;0.85;;
23115;SDS011;11727;52.134;5.052;2023-06-26T14:36:25;1.98;;;0.65;;
23115;SDS011;11727;52.134;5.052;2023-06-26T14:38:52;2.70;;;0.60;;
23115;SDS011;11727;52.134;5.052;2023-06-26T14:41:18;5.88;;;0.60;;
23115;SDS011;11727;52.134;5.052;2023-06-26T14:43:43;2.30;;;0.52;;
23115;SDS011;11727;52.134;5.052;2023-06-26T14:46:10;2.55;;;0.80;;
23115;SDS011;11727;52.134;5.052;2023-06-26T14:48:36;2.75;;;0.52;;
23115;SDS011;11727;52.134;5.052;2023-06-26T14:51:02;3.20;;;0.60;;
23115;SDS011;11727;52.134;5.052;2023-06-26T14:53:27;0.88;;;0.50;;
23115;SDS011;11727;52.134;5.052;2023-06-26T14:55:53;2.47;;;0.40;;
23115;SDS011;11727;52.134;5.052;2023-06-26T14:58:19;1.00;;;0.60;;
23115;SDS011;11727;52.134;5.052;2023-06-26T15:00:44;1.27;;;0.95;;
23115;SDS011;11727;52.134;5.052;2023-06-26T15:03:10;3.03;;;0.73;;
23115;SDS011;11727;52.134;5.052;2023-06-26T15:05:36;0.60;;;0.40;;
23115;SDS011;11727;52.134;5.052;2023-06-26T15:08:02;5.35;;;0.85;;
23115;SDS011;11727;52.134;5.052;2023-06-26T15:10:27;1.73;;;0.50;;
23115;SDS011;11727;52.134;5.052;2023-06-26T15:12:53;2.38;;;0.90;;
23115;SDS011;11727;52.134;5.052;2023-06-26T15:15:19;6.63;;;0.60;;
23115;SDS011;11727;52.134;5.052;2023-06-26T15:17:47;4.10;;;0.70;;
23115;SDS011;11727;52.134;5.052;2023-06-26T15:20:13;2.03;;;1.13;;
23115;SDS011;11727;52.134;5.052;2023-06-26T15:22:38;1.27;;;0.65;;
23115;SDS011;11727;52.134;5.052;2023-06-26T15:25:05;2.00;;;0.80;;
23115;SDS011;11727;52.134;5.052;2023-06-26T15:27:32;5.30;;;0.93;;
23115;SDS011;11727;52.134;5.052;2023-06-26T15:29:57;0.90;;;0.57;;
23115;SDS011;11727;52.134;5.052;2023-06-26T15:32:23;1.65;;;0.50;;
23115;SDS011;11727;52.134;5.052;2023-06-26T15:34:48;5.05;;;0.70;;
23115;SDS011;11727;52.134;5.052;2023-06-26T15:37:14;0.93;;;0.70;;
23115;SDS011;11727;52.134;5.052;2023-06-26T15:39:40;2.05;;;0.60;;
23115;SDS011;11727;52.134;5.052;2023-06-26T15:42:07;2.15;;;0.63;;
23115;SDS011;11727;52.134;5.052;2023-06-26T15:44:32;2.40;;;0.60;;
23115;SDS011;11727;52.134;5.052;2023-06-26T15:46:58;3.50;;;0.65;;
23115;SDS011;11727;52.134;5.052;2023-06-26T15:49:24;2.40;;;0.47;;
23115;SDS011;11727;52.134;5.052;2023-06-26T15:51:50;2.25;;;0.43;;
23115;SDS011;11727;52.134;5.052;2023-06-26T15:54:15;2.55;;;0.70;;
23115;SDS011;11727;52.134;5.052;2023-06-26T15:56:41;3.42;;;0.52;;
23115;SDS011;11727;52.134;5.052;2023-06-26T15:59:07;1.85;;;0.70;;
23115;SDS011;11727;52.134;5.052;2023-06-26T16:01:32;2.55;;;0.75;;
23115;SDS011;11727;52.134;5.052;2023-06-26T16:03:58;1.75;;;0.85;;
23115;SDS011;11727;52.134;5.052;2023-06-26T16:06:24;1.23;;;0.70;;
23115;SDS011;11727;52.134;5.052;2023-06-26T16:08:50;2.00;;;0.70;;
23115;SDS011;11727;52.134;5.052;2023-06-26T16:11:17;3.33;;;0.98;;
23115;SDS011;11727;52.134;5.052;2023-06-26T16:13:43;3.70;;;0.80;;
23115;SDS011;11727;52.134;5.052;2023-06-26T16:16:17;1.10;;;0.60;;
23115;SDS011;11727;52.134;5.052;2023-06-26T16:18:42;1.08;;;0.70;;
23115;SDS011;11727;52.134;5.052;2023-06-26T16:21:08;5.80;;;0.80;;
23115;SDS011;11727;52.134;5.052;2023-06-26T16:23:34;2.22;;;0.60;;
23115;SDS011;11727;52.134;5.052;2023-06-26T16:25:59;2.92;;;1.02;;
23115;SDS011;11727;52.134;5.052;2023-06-26T16:28:25;1.90;;;1.00;;
23115;SDS011;11727;52.134;5.052;2023-06-26T16:30:51;2.83;;;0.68;;
23115;SDS011;11727;52.134;5.052;2023-06-26T16:33:16;2.00;;;0.65;;
23115;SDS011;11727;52.134;5.052;2023-06-26T16:35:42;1.50;;;0.90;;
23115;SDS011;11727;52.134;5.052;2023-06-26T16:38:08;5.78;;;1.00;;
23115;SDS011;11727;52.134;5.052;2023-06-26T16:40:37;5.07;;;0.80;;
23115;SDS011;11727;52.134;5.052;2023-06-26T16:43:03;5.53;;;1.02;;
23115;SDS011;11727;52.134;5.052;2023-06-26T16:45:29;2.65;;;0.88;;
23115;SDS011;11727;52.134;5.052;2023-06-26T16:47:54;2.45;;;0.70;;
23115;SDS011;11727;52.134;5.052;2023-06-26T16:50:21;1.55;;;0.70;;
23115;SDS011;11727;52.134;5.052;2023-06-26T16:52:46;2.40;;;0.95;;
23115;SDS011;11727;52.134;5.052;2023-06-26T16:55:12;0.90;;;0.55;;
23115;SDS011;11727;52.134;5.052;2023-06-26T16:57:37;1.42;;;0.50;;
23115;SDS011;11727;52.134;5.052;2023-06-26T17:00:04;2.03;;;0.85;;
23115;SDS011;11727;52.134;5.052;2023-06-26T17:04:57;2.60;;;1.27;;
23115;SDS011;11727;52.134;5.052;2023-06-26T17:07:23;2.22;;;0.90;;
23115;SDS011;11727;52.134;5.052;2023-06-26T17:09:49;2.45;;;0.98;;
23115;SDS011;11727;52.134;5.052;2023-06-26T17:12:15;2.13;;;0.60;;
23115;SDS011;11727;52.134;5.052;2023-06-26T17:14:41;2.55;;;1.08;;
23115;SDS011;11727;52.134;5.052;2023-06-26T17:17:06;5.25;;;0.73;;
23115;SDS011;11727;52.134;5.052;2023-06-26T17:19:33;1.85;;;0.60;;
23115;SDS011;11727;52.134;5.052;2023-06-26T17:22:01;3.85;;;0.90;;
23115;SDS011;11727;52.134;5.052;2023-06-26T17:24:27;2.67;;;1.08;;
23115;SDS011;11727;52.134;5.052;2023-06-26T17:26:53;2.58;;;0.55;;
23115;SDS011;11727;52.134;5.052;2023-06-26T17:29:19;3.67;;;0.70;;
23115;SDS011;11727;52.134;5.052;2023-06-26T17:31:44;2.55;;;0.70;;
23115;SDS011;11727;52.134;5.052;2023-06-26T17:34:10;5.00;;;0.93;;
23115;SDS011;11727;52.134;5.052;2023-06-26T17:36:36;3.45;;;0.85;;
23115;SDS011;11727;52.134;5.052;2023-06-26T17:39:02;5.97;;;0.70;;
23115;SDS011;11727;52.134;5.052;2023-06-26T17:41:28;3.20;;;0.70;;
23115;SDS011;11727;52.134;5.052;2023-06-26T17:43:53;2.95;;;0.88;;
23115;SDS011;11727;52.134;5.052;2023-06-26T17:46:19;2.47;;;1.05;;
23115;SDS011;11727;52.134;5.052;2023-06-26T17:48:45;4.30;;;0.60;;
23115;SDS011;11727;52.134;5.052;2023-06-26T17:51:10;2.97;;;0.90;;
23115;SDS011;11727;52.134;5.052;2023-06-26T17:53:36;2.88;;;0.70;;
23115;SDS011;11727;52.134;5.052;2023-06-26T17:56:03;3.60;;;0.90;;
23115;SDS011;11727;52.134;5.052;2023-06-26T17:58:30;2.10;;;0.70;;
23115;SDS011;11727;52.134;5.052;2023-06-26T18:00:56;2.78;;;0.70;;
23115;SDS011;11727;52.134;5.052;2023-06-26T18:03:21;2.88;;;0.80;;
23115;SDS011;11727;52.134;5.052;2023-06-26T18:05:47;1.85;;;0.60;;
23115;SDS011;11727;52.134;5.052;2023-06-26T18:08:12;3.78;;;0.82;;
23115;SDS011;11727;52.134;5.052;2023-06-26T18:10:39;1.85;;;0.68;;
23115;SDS011;11727;52.134;5.052;2023-06-26T18:13:04;0.98;;;0.40;;
23115;SDS011;11727;52.134;5.052;2023-06-26T18:15:30;2.83;;;0.70;;
23115;SDS011;11727;52.134;5.052;2023-06-26T18:17:55;3.10;;;1.15;;
23115;SDS011;11727;52.134;5.052;2023-06-26T18:20:21;3.58;;;1.00;;
23115;SDS011;11727;52.134;5.052;2023-06-26T18:22:47;4.18;;;0.98;;
23115;SDS011;11727;52.134;5.052;2023-06-26T18:25:13;1.23;;;0.52;;
23115;SDS011;11727;52.134;5.052;2023-06-26T18:27:39;1.80;;;0.80;;
23115;SDS011;11727;52.134;5.052;2023-06-26T18:30:05;2.58;;;0.70;;